createdAt,value
2018-09-06T00:01:39.799Z,20.63
2018-09-06T00:06:44.019Z,16.23
2018-09-06T00:11:48.284Z,15.37
2018-09-06T00:16:52.452Z,18.60
2018-09-06T00:21:56.647Z,14.03
2018-09-06T00:27:00.857Z,14.60
2018-09-06T00:32:05.031Z,16.10
2018-09-06T00:37:09.195Z,17.93
2018-09-06T00:42:13.401Z,23.50
2018-09-06T00:47:17.640Z,25.30
2018-09-06T00:52:21.872Z,26.50
2018-09-06T00:57:26.192Z,21.93
2018-09-06T01:02:30.486Z,23.03
2018-09-06T01:07:34.639Z,23.93
2018-09-06T01:12:38.912Z,26.30
2018-09-06T01:17:43.265Z,23.23
2018-09-06T01:22:47.480Z,26.97
2018-09-06T01:27:51.700Z,22.03
2018-09-06T01:32:55.907Z,23.20
2018-09-06T01:38:00.072Z,19.87
2018-09-06T01:43:04.245Z,22.30
2018-09-06T01:48:08.433Z,24.17
2018-09-06T01:53:12.630Z,25.00
2018-09-06T01:58:16.891Z,21.07
2018-09-06T02:03:21.018Z,19.83
2018-09-06T02:08:25.274Z,23.47
2018-09-06T02:13:29.456Z,22.03
2018-09-06T02:18:33.918Z,21.50
2018-09-06T02:23:38.137Z,20.77
2018-09-06T02:28:42.372Z,21.73
2018-09-06T02:33:47.414Z,21.60
2018-09-06T02:38:51.640Z,21.93
2018-09-06T02:43:55.855Z,17.13
2018-09-06T02:49:00.003Z,16.77
2018-09-06T02:54:04.162Z,14.23
2018-09-06T02:59:08.351Z,14.67
2018-09-06T03:04:12.557Z,16.67
2018-09-06T03:09:16.847Z,15.47
2018-09-06T03:14:21.122Z,16.13
2018-09-06T03:19:25.328Z,15.03
2018-09-06T03:24:29.514Z,15.37
2018-09-06T03:29:33.680Z,14.90
2018-09-06T03:34:37.880Z,16.53
2018-09-06T03:39:42.050Z,12.67
2018-09-06T03:44:46.248Z,14.13
2018-09-06T03:49:50.742Z,15.20
2018-09-06T03:54:54.967Z,12.70
2018-09-06T03:59:59.144Z,15.17
2018-09-06T04:05:03.311Z,14.73
2018-09-06T04:10:07.526Z,15.07
2018-09-06T04:15:11.732Z,16.07
2018-09-06T04:20:15.944Z,14.63
2018-09-06T04:25:20.281Z,15.00
2018-09-06T04:30:24.823Z,17.97
2018-09-06T04:35:29.011Z,17.90
2018-09-06T04:40:33.238Z,18.87
2018-09-06T04:45:37.440Z,15.53
2018-09-06T04:50:41.949Z,18.17
2018-09-06T04:55:46.110Z,19.40
2018-09-06T05:00:50.609Z,16.27
2018-09-06T05:05:54.768Z,17.97
2018-09-06T05:11:06.019Z,18.37
2018-09-06T05:16:10.166Z,19.00
2018-09-06T05:21:14.340Z,21.47
2018-09-06T05:26:18.494Z,22.00
2018-09-06T05:31:22.671Z,23.33
2018-09-06T05:36:26.850Z,23.17
2018-09-06T05:41:31.034Z,22.00
2018-09-06T05:46:35.268Z,23.50
2018-09-06T05:51:39.449Z,23.93
2018-09-06T05:56:43.658Z,24.00
2018-09-06T06:01:47.823Z,24.03
2018-09-06T06:06:52.005Z,19.60
2018-09-06T06:11:56.341Z,23.63
2018-09-06T06:17:00.787Z,19.87
2018-09-06T06:22:04.936Z,21.37
2018-09-06T06:27:09.097Z,21.30
2018-09-06T06:32:13.335Z,22.13
2018-09-06T06:37:17.504Z,21.60
2018-09-06T06:42:21.768Z,19.97
2018-09-06T06:47:26.678Z,21.30
2018-09-06T06:52:30.835Z,21.13
2018-09-06T06:57:35.020Z,24.27
2018-09-06T07:02:39.194Z,22.50
2018-09-06T07:07:43.375Z,25.90
2018-09-06T07:12:47.528Z,23.80
2018-09-06T07:17:51.793Z,21.67
2018-09-06T07:22:55.923Z,24.03
2018-09-06T07:28:00.124Z,22.40
2018-09-06T07:33:04.335Z,24.57
2018-09-06T07:38:08.486Z,25.43
2018-09-06T07:43:12.612Z,25.63
2018-09-06T07:48:16.894Z,25.33
2018-09-06T07:53:21.182Z,24.60
2018-09-06T07:58:25.417Z,26.03
2018-09-06T08:03:29.718Z,24.90
2018-09-06T08:08:33.859Z,26.07
2018-09-06T08:13:38.033Z,27.73
2018-09-06T08:18:42.283Z,26.27
2018-09-06T08:23:46.467Z,26.03
2018-09-06T08:28:51.126Z,25.03
2018-09-06T08:33:55.392Z,25.83
2018-09-06T08:38:59.562Z,25.90
2018-09-06T08:44:03.752Z,24.50
2018-09-06T08:49:07.964Z,25.50
2018-09-06T08:54:12.127Z,27.07
2018-09-06T08:59:16.336Z,26.63
2018-09-06T09:04:20.699Z,27.07
2018-09-06T09:09:24.906Z,26.33
2018-09-06T09:14:29.055Z,25.53
2018-09-06T09:19:33.289Z,29.57
2018-09-06T09:24:37.506Z,23.37
2018-09-06T09:29:41.743Z,28.17
2018-09-06T09:34:45.972Z,24.13
2018-09-06T09:39:50.650Z,24.83
2018-09-06T09:44:55.271Z,23.60
2018-09-06T09:50:02.429Z,25.53
2018-09-06T09:55:06.580Z,27.20
2018-09-06T10:00:10.856Z,32.40
2018-09-06T10:05:20.402Z,34.50
2018-09-06T10:10:24.730Z,39.93
2018-09-06T10:15:29.011Z,35.90
2018-09-06T10:20:33.321Z,35.50
2018-09-06T10:25:37.534Z,38.10
2018-09-06T10:30:41.735Z,39.63
2018-09-06T10:35:46.026Z,38.77
2018-09-06T10:40:50.206Z,38.00
2018-09-06T10:45:54.431Z,38.33
2018-09-06T10:50:58.680Z,41.13
2018-09-06T10:56:02.887Z,40.17
2018-09-06T11:01:12.472Z,35.77
2018-09-06T11:06:16.873Z,37.10
2018-09-06T11:11:21.125Z,36.13
2018-09-06T11:16:25.367Z,32.97
2018-09-06T11:21:30.009Z,39.47
2018-09-06T11:26:34.115Z,31.87
2018-09-06T11:31:38.659Z,33.83
2018-09-06T11:36:42.884Z,28.57
2018-09-06T11:41:47.173Z,24.43
2018-09-06T11:46:51.606Z,24.03
2018-09-06T11:52:02.600Z,22.93
2018-09-06T11:57:06.749Z,26.27
2018-09-06T12:02:10.925Z,22.37
2018-09-06T12:07:15.198Z,25.40
2018-09-06T12:12:19.376Z,31.87
2018-09-06T12:17:23.606Z,21.90
2018-09-06T12:22:27.875Z,25.43
2018-09-06T12:27:32.141Z,23.90
2018-09-06T12:32:36.437Z,24.73
2018-09-06T12:37:40.656Z,25.23
2018-09-06T12:42:44.977Z,25.33
2018-09-06T12:47:49.242Z,24.63
2018-09-06T12:52:53.492Z,22.03
2018-09-06T12:57:57.716Z,24.80
2018-09-06T13:03:02.030Z,25.50
2018-09-06T13:08:06.184Z,25.47
2018-09-06T13:13:10.322Z,24.30
2018-09-06T13:18:14.506Z,24.47
2018-09-06T13:23:18.700Z,24.73
2018-09-06T13:28:23.018Z,21.50
2018-09-06T13:33:27.259Z,23.87
2018-09-06T13:38:31.500Z,22.80
2018-09-06T13:43:35.716Z,23.03
2018-09-06T13:48:39.934Z,21.63
2018-09-06T13:53:44.099Z,19.80
2018-09-06T13:58:48.287Z,17.70
2018-09-06T14:03:52.527Z,22.97
2018-09-06T14:08:56.708Z,23.93
2018-09-06T14:14:00.881Z,23.87
2018-09-06T14:19:05.126Z,20.87
2018-09-06T14:24:09.327Z,19.17
2018-09-06T14:29:13.536Z,19.40
2018-09-06T14:34:17.714Z,21.03
2018-09-06T14:39:28.775Z,20.17
2018-09-06T14:44:33.095Z,23.10
2018-09-06T14:49:37.361Z,20.93
2018-09-06T14:54:41.661Z,18.00
2018-09-06T15:04:55.253Z,19.80
2018-09-06T15:09:59.419Z,23.53
2018-09-06T15:15:03.718Z,14.77
2018-09-06T15:20:08.084Z,10.47
2018-09-06T15:25:12.222Z,6.67
2018-09-06T15:30:16.408Z,4.70
2018-09-06T15:35:20.611Z,6.07
2018-09-06T15:40:24.792Z,5.90
2018-09-06T15:45:28.994Z,6.90
2018-09-06T15:50:33.194Z,8.60
2018-09-06T15:55:37.434Z,7.30
2018-09-06T16:00:41.612Z,8.50
2018-09-06T16:05:45.797Z,7.90
2018-09-06T16:10:49.980Z,9.67
2018-09-06T16:15:54.519Z,10.80
2018-09-06T16:20:58.723Z,10.50
2018-09-06T16:26:02.948Z,9.07
2018-09-06T16:31:07.096Z,9.80
2018-09-06T16:36:11.269Z,9.53
2018-09-06T16:41:15.533Z,9.93
2018-09-06T16:46:19.736Z,10.17
2018-09-06T16:51:23.973Z,9.30
2018-09-06T16:56:28.157Z,11.83
2018-09-06T17:01:32.337Z,13.30
2018-09-06T17:06:36.577Z,14.00
2018-09-06T17:11:40.812Z,14.87
2018-09-06T17:16:45.139Z,14.13
2018-09-06T17:21:49.333Z,15.17
2018-09-06T17:26:53.575Z,15.17
2018-09-06T17:31:57.744Z,12.70
2018-09-06T17:37:01.940Z,14.27
2018-09-06T17:42:06.546Z,14.70
2018-09-06T17:47:10.750Z,14.80
2018-09-06T17:52:14.972Z,12.93
2018-09-06T17:57:19.206Z,15.47
2018-09-06T18:02:23.443Z,12.13
2018-09-06T18:07:28.217Z,12.50
2018-09-06T18:12:32.610Z,13.73
2018-09-06T18:17:37.004Z,9.33
2018-09-06T18:22:42.040Z,7.93
2018-09-06T18:27:46.385Z,8.37
2018-09-06T18:32:50.715Z,8.63
2018-09-06T18:37:55.456Z,4.93
2018-09-06T18:42:59.725Z,5.40
2018-09-06T18:48:04.154Z,4.53
2018-09-06T18:53:08.375Z,3.93
2018-09-06T18:58:12.797Z,3.50
2018-09-06T19:03:16.957Z,4.60
2018-09-06T19:08:21.619Z,5.50
2018-09-06T19:13:25.883Z,4.57
2018-09-06T19:18:30.131Z,6.07
2018-09-06T19:23:35.061Z,3.97
2018-09-06T19:28:39.291Z,3.00
2018-09-06T19:33:43.487Z,3.60
2018-09-06T19:38:48.787Z,2.90
2018-09-06T19:43:53.425Z,3.30
2018-09-06T19:48:59.917Z,3.07
2018-09-06T19:54:05.704Z,2.93
2018-09-06T19:59:10.277Z,5.43
2018-09-06T20:04:15.433Z,3.27
2018-09-06T20:09:26.468Z,4.17
2018-09-06T20:14:31.497Z,5.57
2018-09-06T20:19:35.863Z,4.17
2018-09-06T20:24:40.107Z,4.87
2018-09-06T20:29:44.521Z,4.50
2018-09-06T20:34:48.723Z,5.67
2018-09-06T20:39:52.952Z,4.67
2018-09-06T20:44:57.222Z,6.83
2018-09-06T20:50:01.653Z,4.30
2018-09-06T20:55:05.841Z,4.27
2018-09-06T21:00:10.057Z,5.90
2018-09-06T21:05:14.266Z,5.03
2018-09-06T21:10:18.565Z,4.57
2018-09-06T21:15:22.728Z,4.97
2018-09-06T21:20:27.037Z,5.60
2018-09-06T21:25:31.249Z,6.07
2018-09-06T21:30:35.409Z,6.77
2018-09-06T21:35:39.596Z,5.17
2018-09-06T21:40:46.608Z,5.87
2018-09-06T21:45:50.800Z,5.97
2018-09-06T21:50:55.014Z,5.70
2018-09-06T21:55:59.256Z,4.67
2018-09-06T22:01:03.462Z,5.83
2018-09-06T22:06:07.656Z,6.87
2018-09-06T22:11:11.822Z,8.83
2018-09-06T22:16:16.095Z,7.33
2018-09-06T22:21:20.289Z,6.73
2018-09-06T22:26:24.478Z,5.73
2018-09-06T22:31:28.675Z,7.43
2018-09-06T22:36:32.925Z,8.10
2018-09-06T22:41:37.179Z,8.97
2018-09-06T22:46:41.393Z,9.57
2018-09-06T22:51:45.550Z,8.00
2018-09-06T22:56:49.823Z,9.43
2018-09-06T23:01:54.124Z,5.00
2018-09-06T23:06:58.374Z,6.10
2018-09-06T23:12:02.537Z,7.47
2018-09-06T23:17:06.652Z,7.73
2018-09-06T23:22:10.837Z,8.53
2018-09-06T23:27:15.013Z,7.10
2018-09-06T23:32:19.193Z,7.30
2018-09-06T23:37:23.405Z,5.97
2018-09-06T23:42:27.611Z,5.90
2018-09-06T23:47:31.886Z,7.00
2018-09-06T23:52:36.115Z,6.93
2018-09-06T23:57:40.291Z,8.30
